»·PEaware :: SWA1722 KBOI-KONT

SWA1722 :: KBOI-KONT

FLIGHT INFORMATION

Flight Status: Arrived
Operator:
Southwest Airlines
More flights by this operator :: More flights under this callsign
Pilot: Anonymous 29214 (29214)
Aircraft: BOEING 737-800
(B738)
More flights by this aircraft type
Origin: KBOI Boise Air Terminal/Gowen
United States
Destination: KONT Ontario Intl
United States
More flights between these airports :: More routes between these airports
Route: +BOI3 HYVAL REO LLC FRA LANDO PMD ZIGGY7
File this flight plan on PilotEdge
Remarks: RMK / SIMBRIEF
Altitude:
(Current/Filed)
35,000ft
Speed:
(Current/Filed)
453kts
Departed: 23-Apr-20 03:55 PM
Arrived: 23-Apr-20 05:38 PM
Distance/Time
Traveled:
574nm/1:43
Distance/Time
To Go:
Arrived

Flight Plot

Page will automatically refresh every two minutes.


Map Options




Map Legend


Flown Route
Filed Route
Departure Airport
Arrival Airport
Navaid (VOR, NDB)
Fix

Horizontal Profiles

Position Reports

Time Latitude Longitude Heading Altitude Ground
Speed
23-Apr-20 15:20 43.566847 -116.218519 319 2854ft 0kts
23-Apr-20 15:21 43.566847 -116.218519 319 2854ft 0kts
23-Apr-20 15:22 43.566847 -116.218519 319 2854ft 0kts
23-Apr-20 15:23 43.566847 -116.218519 319 2854ft 0kts
23-Apr-20 15:24 43.566847 -116.218519 319 2854ft 0kts
23-Apr-20 15:25 43.566847 -116.218519 319 2854ft 0kts
23-Apr-20 15:26 43.566847 -116.218519 319 2854ft 0kts
23-Apr-20 15:27 43.566847 -116.218519 319 2854ft 0kts
23-Apr-20 15:28 43.566847 -116.218519 319 2854ft 0kts
23-Apr-20 15:29 43.566847 -116.218519 319 2854ft 0kts
23-Apr-20 15:30 43.566847 -116.218519 319 2854ft 0kts
23-Apr-20 15:31 43.566847 -116.218519 319 2854ft 0kts
23-Apr-20 15:32 43.566847 -116.218519 319 2854ft 0kts
23-Apr-20 15:33 43.566847 -116.218519 319 2854ft 0kts
23-Apr-20 15:34 43.566847 -116.218519 319 2854ft 0kts
23-Apr-20 15:35 43.566847 -116.218519 319 2854ft 0kts
23-Apr-20 15:36 43.566847 -116.218519 319 2854ft 0kts
23-Apr-20 15:37 43.566847 -116.218519 319 2854ft 0kts
23-Apr-20 15:38 43.566847 -116.218519 319 2854ft 0kts
23-Apr-20 15:39 43.566847 -116.218519 319 2854ft 0kts
23-Apr-20 15:40 43.566847 -116.218519 319 2854ft 0kts
23-Apr-20 15:41 43.566847 -116.218519 319 2854ft 0kts
23-Apr-20 15:42 43.566847 -116.218519 319 2854ft 0kts
23-Apr-20 15:43 43.566847 -116.218519 319 2854ft 0kts
23-Apr-20 15:44 43.566817 -116.218483 319 2854ft 2kts
23-Apr-20 15:45 43.566379 -116.217956 301 2855ft 2kts
23-Apr-20 15:46 43.566559 -116.217410 178 2857ft 0kts
23-Apr-20 15:47 43.566631 -116.217422 175 2856ft 0kts
23-Apr-20 15:48 43.566612 -116.217419 175 2856ft 1kts
23-Apr-20 15:49 43.564601 -116.216899 123 2858ft 8kts
23-Apr-20 15:50 43.563618 -116.214080 115 2863ft 9kts
23-Apr-20 15:51 43.562100 -116.209623 115 2866ft 13kts
23-Apr-20 15:52 43.560554 -116.205088 115 2872ft 14kts
23-Apr-20 15:53 43.558938 -116.202680 209 2874ft 7kts
23-Apr-20 15:54 43.560769 -116.209236 295 2865ft 97kts
23-Apr-20 15:55 43.577709 -116.262792 288 4607ft 169kts
23-Apr-20 15:56 43.599959 -116.339435 297 5827ft 261kts
23-Apr-20 15:57 43.617947 -116.433600 241 9118ft 275kts
23-Apr-20 15:58 43.553990 -116.505361 219 10999ft 333kts
23-Apr-20 15:59 43.478100 -116.582102 221 13780ft 344kts
23-Apr-20 16:00 43.400389 -116.661210 223 16599ft 354kts
23-Apr-20 16:01 43.320067 -116.742874 224 19194ft 364kts
23-Apr-20 16:02 43.238010 -116.826224 225 21633ft 370kts
23-Apr-20 16:03 43.155984 -116.909414 226 23733ft 377kts
23-Apr-20 16:04 43.085064 -117.012353 243 25599ft 366kts
23-Apr-20 16:05 43.024249 -117.123484 241 27189ft 378kts
23-Apr-20 16:06 42.959255 -117.237306 242 28757ft 384kts
23-Apr-20 16:07 42.892787 -117.352533 242 30149ft 389kts
23-Apr-20 16:08 42.826688 -117.466535 243 31738ft 384kts
23-Apr-20 16:09 42.760725 -117.579941 243 33188ft 381kts
23-Apr-20 16:10 42.695207 -117.691966 242 34474ft 379kts
23-Apr-20 16:11 42.627171 -117.803526 234 35220ft 397kts
23-Apr-20 16:12 42.529480 -117.883760 211 35228ft 434kts
23-Apr-20 16:13 42.409719 -117.922237 205 35227ft 446kts
23-Apr-20 16:14 42.288847 -117.958025 205 35230ft 445kts
23-Apr-20 16:15 42.167943 -117.994049 205 35226ft 446kts
23-Apr-20 16:16 42.046599 -118.029832 205 35220ft 447kts
23-Apr-20 16:17 41.925567 -118.065349 205 35230ft 446kts
23-Apr-20 16:18 41.804392 -118.100844 204 35221ft 447kts
23-Apr-20 16:19 41.682812 -118.136321 204 35218ft 446kts
23-Apr-20 16:20 41.562525 -118.171206 204 35212ft 446kts
23-Apr-20 16:21 41.441707 -118.206243 204 35209ft 446kts
23-Apr-20 16:22 41.320441 -118.241119 204 35213ft 445kts
23-Apr-20 16:23 41.199947 -118.275823 204 35210ft 446kts
23-Apr-20 16:24 41.078568 -118.310613 203 35206ft 446kts
23-Apr-20 16:25 40.958257 -118.344927 203 35209ft 447kts
23-Apr-20 16:27 40.836975 -118.379309 203 35205ft 450kts
23-Apr-20 16:28 40.714393 -118.413999 202 35207ft 450kts
23-Apr-20 16:29 40.592586 -118.448519 203 35215ft 450kts
23-Apr-20 16:30 40.473037 -118.482166 202 35208ft 451kts
23-Apr-20 16:31 40.352814 -118.515716 202 35212ft 451kts
23-Apr-20 16:32 40.231476 -118.549568 202 35206ft 451kts
23-Apr-20 16:33 40.108977 -118.583954 204 35210ft 450kts
23-Apr-20 16:34 39.988962 -118.625529 205 35209ft 448kts
23-Apr-20 16:35 39.868384 -118.667818 204 35211ft 449kts
23-Apr-20 16:36 39.747881 -118.709905 204 35212ft 449kts
23-Apr-20 16:37 39.627334 -118.751865 204 35213ft 449kts
23-Apr-20 16:38 39.507051 -118.793591 204 35211ft 449kts
23-Apr-20 16:39 39.387276 -118.834992 203 35211ft 449kts
23-Apr-20 16:40 39.267089 -118.876390 203 35212ft 449kts
23-Apr-20 16:41 39.146369 -118.917824 203 35216ft 450kts
23-Apr-20 16:41 39.045687 -118.952257 203 35218ft 449kts
23-Apr-20 16:43 38.905116 -119.000177 203 35237ft 450kts
23-Apr-20 16:44 38.784731 -119.041053 203 35221ft 448kts
23-Apr-20 16:44 38.684293 -119.075052 203 35222ft 449kts
23-Apr-20 16:45 38.563850 -119.115699 203 35223ft 449kts
23-Apr-20 16:47 38.423061 -119.163016 203 35225ft 448kts
23-Apr-20 16:48 38.302399 -119.203444 203 35227ft 450kts
23-Apr-20 16:48 38.201749 -119.237028 203 35229ft 448kts
23-Apr-20 16:49 38.081440 -119.277080 203 35232ft 450kts
23-Apr-20 16:50 37.959935 -119.317416 202 35229ft 453kts
23-Apr-20 16:51 37.838602 -119.357497 202 35225ft 451kts
23-Apr-20 16:52 37.716992 -119.397559 202 35223ft 451kts
23-Apr-20 16:53 37.595904 -119.437313 202 35209ft 452kts
23-Apr-20 16:54 37.474009 -119.477202 202 35186ft 453kts
23-Apr-20 16:55 37.352635 -119.516880 202 35167ft 451kts
23-Apr-20 16:56 37.231385 -119.556212 202 35138ft 448kts
23-Apr-20 16:57 37.106650 -119.577312 183 35124ft 467kts
23-Apr-20 16:58 36.980308 -119.535528 165 35115ft 485kts
23-Apr-20 16:59 36.854849 -119.475470 165 35109ft 483kts
23-Apr-20 17:00 36.729256 -119.415446 164 35103ft 482kts
23-Apr-20 17:01 36.604989 -119.356242 164 35102ft 482kts
23-Apr-20 17:02 36.479717 -119.296706 164 35096ft 482kts
23-Apr-20 17:03 36.354845 -119.237636 164 35092ft 481kts
23-Apr-20 17:04 36.230147 -119.178793 164 35091ft 481kts
23-Apr-20 17:05 36.105329 -119.120256 164 35090ft 481kts
23-Apr-20 17:06 35.981128 -119.062095 164 35092ft 481kts
23-Apr-20 17:07 35.856488 -119.003887 164 35091ft 480kts
23-Apr-20 17:08 35.732335 -118.946073 164 35097ft 480kts
23-Apr-20 17:09 35.607469 -118.888168 164 35104ft 482kts
23-Apr-20 17:10 35.482212 -118.830394 164 35103ft 481kts
23-Apr-20 17:11 35.357816 -118.773234 164 35109ft 477kts
23-Apr-20 17:12 35.234565 -118.716514 164 35125ft 474kts
23-Apr-20 17:13 35.109715 -118.659398 164 32406ft 483kts
23-Apr-20 17:14 34.993369 -118.580708 140 29770ft 478kts
23-Apr-20 17:15 34.907202 -118.462663 131 27809ft 455kts
23-Apr-20 17:16 34.826899 -118.345974 132 25807ft 452kts
23-Apr-20 17:17 34.747520 -118.230710 132 23803ft 434kts
23-Apr-20 17:18 34.671745 -118.121142 132 21894ft 414kts
23-Apr-20 17:19 34.606422 -118.007424 120 20001ft 418kts
23-Apr-20 17:20 34.550877 -117.887043 120 18374ft 398kts
23-Apr-20 17:21 34.497247 -117.770116 119 17016ft 400kts
23-Apr-20 17:22 34.444883 -117.656091 119 15621ft 360kts
23-Apr-20 17:23 34.398362 -117.555612 119 14397ft 338kts
23-Apr-20 17:24 34.352909 -117.457452 119 14058ft 331kts
23-Apr-20 17:25 34.302446 -117.366151 138 12603ft 323kts
23-Apr-20 17:26 34.224436 -117.319904 167 11219ft 309kts
23-Apr-20 17:27 34.142017 -117.297863 181 8873ft 302kts
23-Apr-20 17:28 34.072102 -117.343633 213 6940ft 288kts
23-Apr-20 17:29 33.995055 -117.347463 178 4855ft 278kts
23-Apr-20 17:30 33.968420 -117.281985 44 3987ft 257kts
23-Apr-20 17:31 34.024420 -117.295112 312 4008ft 226kts
23-Apr-20 17:32 34.056283 -117.358679 277 4000ft 225kts
23-Apr-20 17:33 34.056868 -117.425361 269 3505ft 181kts
23-Apr-20 17:34 34.057015 -117.484615 268 2569ft 177kts
23-Apr-20 17:35 34.056934 -117.538598 267 1689ft 156kts
23-Apr-20 17:36 34.056908 -117.588843 268 934ft 144kts
23-Apr-20 17:37 34.056999 -117.610055 318 943ft 4kts
23-Apr-20 17:38 34.057859 -117.610143 26 947ft 0kts

Navigation Log

Ident Type
Flight plan parsing failed, navigation log unavailable